Time;durP1;ratioP1;P1;durP2;ratioP2;P2;SDS_P1;SDS_P2;PMS_P1;PMS_P2;Temp;Humidity;BMP_temperature;BMP_pressure;BME280_temperature;BME280_humidity;BME280_pressure;Samples;Min_cycle;Max_cycle;Signal;HPM_P1;HPM_P2
2021/04/21 00:01:12;;;;;;;11.88;10.13;;;7.80;99.90;;;;;;5109695;28;20200;-52
2021/04/21 00:03:39;;;;;;;12.70;10.25;;;7.70;99.90;;;;;;5109287;28;20290;-52
2021/04/21 00:06:08;;;;;;;12.13;10.00;;;7.90;99.90;;;;;;5103250;28;20218;-52
2021/04/21 00:08:36;;;;;;;11.18;10.05;;;7.60;99.90;;;;;;5106751;28;20183;-51
2021/04/21 00:11:02;;;;;;;11.88;10.35;;;7.80;99.90;;;;;;5108419;28;20662;-52
2021/04/21 00:13:29;;;;;;;11.57;10.27;;;7.70;99.90;;;;;;5107848;28;20193;-52
2021/04/21 00:15:56;;;;;;;13.27;10.05;;;7.60;99.90;;;;;;5108292;28;20174;-51
2021/04/21 00:18:23;;;;;;;11.52;10.32;;;7.60;99.90;;;;;;5108854;28;20194;-52
2021/04/21 00:21:01;;;;;;;12.75;10.80;;;7.90;99.90;;;;;;5107857;28;20316;-52
2021/04/21 00:23:28;;;;;;;11.75;10.45;;;7.60;99.90;;;;;;5104959;28;20194;-52
2021/04/21 00:25:56;;;;;;;12.38;10.15;;;7.60;99.90;;;;;;5109106;28;20319;-51
2021/04/21 00:28:26;;;;;;;12.88;10.25;;;7.60;99.90;;;;;;5107100;28;20267;-52
2021/04/21 00:30:54;;;;;;;12.65;9.65;;;7.70;99.90;;;;;;5110033;27;20213;-52
2021/04/21 00:33:22;;;;;;;10.80;9.70;;;7.60;99.90;;;;;;5108240;28;20596;-51
2021/04/21 00:35:50;;;;;;;12.48;9.82;;;7.70;99.90;;;;;;5107913;28;20282;-52
2021/04/21 00:38:19;;;;;;;13.73;10.02;;;7.50;99.90;;;;;;5107615;28;20689;-52
2021/04/21 00:40:44;;;;;;;12.40;10.23;;;7.60;99.90;;;;;;5108115;28;20182;-52
2021/04/21 00:43:15;;;;;;;11.83;9.80;;;7.90;99.90;;;;;;5108601;28;20444;-51
2021/04/21 00:45:46;;;;;;;13.18;10.95;;;7.10;99.90;;;;;;5106005;28;20189;-51
2021/04/21 00:48:38;;;;;;;11.65;9.70;;;7.30;99.90;;;;;;5107665;28;20232;-52
2021/04/21 00:51:12;;;;;;;11.80;9.90;;;7.60;99.90;;;;;;5060948;28;20311;-51
2021/04/21 00:53:41;;;;;;;11.30;9.57;;;7.50;99.90;;;;;;5103918;28;20200;-52
2021/04/21 00:56:19;;;;;;;12.27;9.93;;;7.30;99.90;;;;;;5108005;28;20189;-51
2021/04/21 00:58:59;;;;;;;11.48;10.00;;;7.30;99.90;;;;;;5106459;28;20187;-52
2021/04/21 01:01:28;;;;;;;11.45;10.25;;;7.40;99.90;;;;;;5108200;28;20195;-52
2021/04/21 01:03:54;;;;;;;11.57;10.38;;;7.30;99.90;;;;;;5103109;28;20181;-52
2021/04/21 01:06:46;;;;;;;11.90;9.40;;;7.30;99.90;;;;;;5105139;28;20221;-52
2021/04/21 01:09:15;;;;;;;10.82;9.70;;;7.30;99.90;;;;;;5100710;28;20601;-52
2021/04/21 01:11:46;;;;;;;11.93;10.60;;;7.30;99.90;;;;;;5107844;28;20673;-51
2021/04/21 01:14:22;;;;;;;11.10;9.85;;;7.30;99.90;;;;;;5102632;28;20186;-52
2021/04/21 01:16:59;;;;;;;11.02;9.93;;;6.70;99.90;;;;;;5106896;28;20175;-52
2021/04/21 01:19:49;;;;;;;11.63;9.73;;;7.10;99.90;;;;;;5104544;28;20653;-52
2021/04/21 01:22:25;;;;;;;12.18;10.48;;;7.10;99.90;;;;;;5107412;28;20198;-52
2021/04/21 01:25:21;;;;;;;12.07;10.52;;;7.20;99.90;;;;;;5106409;28;20175;-52
2021/04/21 01:27:49;;;;;;;11.70;10.50;;;7.10;99.90;;;;;;5103973;28;20181;-51
2021/04/21 01:30:18;;;;;;;11.95;10.70;;;6.80;99.90;;;;;;5105960;28;20301;-53
2021/04/21 01:32:48;;;;;;;13.52;10.40;;;7.20;99.90;;;;;;5106963;28;20213;-50
2021/04/21 01:35:18;;;;;;;10.40;9.40;;;7.00;99.90;;;;;;5107753;28;20682;-52
2021/04/21 01:37:45;;;;;;;12.70;10.15;;;6.80;99.90;;;;;;5106709;28;20187;-53
2021/04/21 01:40:20;;;;;;;12.70;10.68;;;6.80;99.90;;;;;;5107450;28;20176;-53
2021/04/21 01:42:53;;;;;;;13.38;10.75;;;7.00;99.90;;;;;;5106804;28;20226;-53
2021/04/21 01:45:23;;;;;;;12.45;11.25;;;6.80;99.90;;;;;;5107634;28;20172;-53
2021/04/21 01:47:50;;;;;;;12.45;11.15;;;7.00;99.90;;;;;;5102088;28;20181;-53
2021/04/21 01:50:17;;;;;;;12.13;10.63;;;6.70;99.90;;;;;;5106933;28;20203;-51
2021/04/21 01:53:03;;;;;;;17.55;12.07;;;6.60;99.90;;;;;;5108056;28;20295;-51
2021/04/21 01:55:41;;;;;;;14.20;11.48;;;7.00;99.90;;;;;;5108319;28;20635;-51
2021/04/21 01:58:30;;;;;;;15.43;11.65;;;7.10;99.90;;;;;;5110583;28;20200;-51
2021/04/21 02:01:10;;;;;;;16.83;11.25;;;6.90;99.90;;;;;;5108203;28;20224;-51
2021/04/21 02:03:42;;;;;;;13.20;11.23;;;6.80;99.90;;;;;;5110956;28;20646;-51
2021/04/21 02:06:32;;;;;;;12.55;10.73;;;6.70;99.90;;;;;;5109034;28;20279;-51
2021/04/21 02:09:22;;;;;;;17.10;10.73;;;6.60;99.90;;;;;;5117875;27;20180;-51
2021/04/21 02:12:05;;;;;;;13.48;11.32;;;6.50;99.90;;;;;;5109492;28;20618;-51
2021/04/21 02:15:09;;;;;;;13.07;11.48;;;6.70;99.90;;;;;;5107689;28;20524;-50
2021/04/21 02:17:47;;;;;;;12.55;10.57;;;6.50;99.90;;;;;;5107518;28;20223;-50
2021/04/21 02:20:21;;;;;;;13.77;11.25;;;6.70;99.90;;;;;;5098211;28;20185;-50
2021/04/21 02:23:02;;;;;;;16.33;13.05;;;6.70;99.90;;;;;;5110272;28;20203;-51
2021/04/21 02:25:40;;;;;;;16.27;11.50;;;6.60;99.90;;;;;;5110807;28;20189;-50
2021/04/21 02:28:23;;;;;;;14.68;12.45;;;6.60;99.90;;;;;;5110081;28;20558;-50
2021/04/21 02:31:02;;;;;;;13.60;10.98;;;6.50;99.90;;;;;;5109014;28;20213;-51
2021/04/21 02:33:36;;;;;;;14.23;11.93;;;6.40;99.90;;;;;;5110338;28;20181;-50
2021/04/21 02:36:07;;;;;;;14.45;12.27;;;6.60;99.90;;;;;;5110444;28;20652;-50
2021/04/21 02:38:53;;;;;;;14.63;12.18;;;6.30;99.90;;;;;;5104000;28;20564;-50
2021/04/21 02:41:34;;;;;;;17.08;12.88;;;6.50;99.90;;;;;;5107857;28;20201;-51
2021/04/21 02:44:30;;;;;;;19.50;13.20;;;6.60;99.90;;;;;;5102226;28;20552;-51
2021/04/21 02:47:04;;;;;;;14.18;12.45;;;6.40;99.90;;;;;;5107197;28;20192;-51
2021/04/21 02:49:49;;;;;;;16.08;12.68;;;6.50;99.90;;;;;;5109851;28;20222;-51
2021/04/21 02:52:57;;;;;;;13.85;12.43;;;6.70;99.90;;;;;;5109859;28;20241;-50
2021/04/21 02:55:47;;;;;;;15.32;13.18;;;6.30;99.90;;;;;;5110217;28;20548;-51
2021/04/21 02:58:47;;;;;;;16.90;12.75;;;6.40;99.90;;;;;;5109896;28;20181;-51
2021/04/21 03:01:23;;;;;;;14.15;12.65;;;6.30;99.90;;;;;;5104709;28;20202;-51
2021/04/21 03:04:12;;;;;;;16.60;12.32;;;6.50;99.90;;;;;;5109345;28;20215;-51
2021/04/21 03:06:44;;;;;;;14.05;11.15;;;6.20;99.90;;;;;;5108823;28;20193;-51
2021/04/21 03:09:16;;;;;;;16.90;12.45;;;6.10;99.90;;;;;;5109236;28;20219;-50
2021/04/21 03:11:42;;;;;;;15.77;12.35;;;6.20;99.90;;;;;;5109673;28;20213;-50
2021/04/21 03:14:08;;;;;;;16.92;12.30;;;6.30;99.90;;;;;;5109633;28;20367;-50
2021/04/21 03:16:38;;;;;;;14.73;13.13;;;6.20;99.90;;;;;;5108971;28;20181;-51
2021/04/21 03:19:08;;;;;;;15.98;12.07;;;6.30;99.90;;;;;;5109675;28;20189;-50
2021/04/21 03:21:39;;;;;;;14.85;11.90;;;6.10;99.90;;;;;;5109219;28;20210;-50
2021/04/21 03:24:13;;;;;;;15.73;12.85;;;6.30;99.90;;;;;;5109419;28;20573;-51
2021/04/21 03:26:43;;;;;;;15.70;13.07;;;6.10;99.90;;;;;;5108894;28;20679;-51
2021/04/21 03:29:15;;;;;;;15.27;12.50;;;6.00;99.90;;;;;;5110812;28;20557;-51
2021/04/21 03:31:44;;;;;;;16.63;13.85;;;5.90;99.90;;;;;;5108818;28;20216;-50
2021/04/21 03:34:14;;;;;;;15.80;13.15;;;5.90;99.90;;;;;;5109220;28;20190;-50
2021/04/21 03:36:41;;;;;;;18.55;13.95;;;5.90;99.90;;;;;;5109034;28;20181;-50
2021/04/21 03:39:08;;;;;;;17.92;13.63;;;6.10;99.90;;;;;;5108937;28;20181;-51
2021/04/21 03:41:36;;;;;;;18.55;13.55;;;5.80;99.90;;;;;;5105809;28;20200;-50
2021/04/21 03:44:03;;;;;;;18.10;13.18;;;5.80;99.90;;;;;;5088813;28;20728;-51
2021/04/21 03:46:30;;;;;;;18.40;14.07;;;5.90;99.90;;;;;;5107602;28;20279;-50
2021/04/21 03:48:57;;;;;;;19.25;13.75;;;5.90;99.90;;;;;;5108944;28;20275;-50
2021/04/21 03:51:23;;;;;;;17.67;13.18;;;5.40;99.90;;;;;;5108181;28;20215;-51
2021/04/21 03:53:51;;;;;;;19.38;15.02;;;5.50;99.90;;;;;;5110310;28;20216;-51
2021/04/21 03:56:18;;;;;;;19.50;14.48;;;5.50;99.90;;;;;;5108770;28;20185;-51
2021/04/21 03:58:46;;;;;;;18.63;14.85;;;5.80;99.90;;;;;;5106954;28;20187;-51
2021/04/21 04:01:20;;;;;;;18.67;14.85;;;5.90;99.90;;;;;;5108380;28;20211;-51
2021/04/21 04:03:54;;;;;;;18.05;14.40;;;5.60;99.90;;;;;;5101982;28;20322;-51
2021/04/21 04:06:24;;;;;;;20.02;15.10;;;5.70;99.90;;;;;;5108302;28;20180;-51
2021/04/21 04:09:01;;;;;;;20.30;16.30;;;5.70;99.90;;;;;;5107986;28;20605;-51
2021/04/21 04:11:32;;;;;;;22.13;15.23;;;5.70;99.90;;;;;;5107132;28;20215;-51
2021/04/21 04:14:13;;;;;;;17.45;15.13;;;5.60;99.90;;;;;;5109292;27;20249;-51
2021/04/21 04:16:40;;;;;;;19.52;15.48;;;5.80;99.90;;;;;;5107420;28;20704;-51
2021/04/21 04:19:08;;;;;;;20.38;15.88;;;5.50;99.90;;;;;;5109147;28;20180;-50
2021/04/21 04:21:37;;;;;;;17.92;15.48;;;5.90;99.90;;;;;;5106197;28;20685;-50
2021/04/21 04:24:18;;;;;;;19.42;15.30;;;5.60;99.90;;;;;;5107744;28;20192;-50
2021/04/21 04:26:44;;;;;;;21.05;16.63;;;5.70;99.90;;;;;;5108134;28;20560;-50
2021/04/21 04:29:13;;;;;;;22.58;16.02;;;5.50;99.90;;;;;;5108327;28;20179;-50
2021/04/21 04:31:40;;;;;;;21.27;15.80;;;5.80;99.90;;;;;;5104243;27;20215;-51
2021/04/21 04:34:07;;;;;;;21.67;15.43;;;5.60;99.90;;;;;;5098914;28;20185;-51
2021/04/21 04:36:39;;;;;;;20.50;16.67;;;5.60;99.90;;;;;;5105997;28;20279;-51
2021/04/21 04:39:06;;;;;;;19.65;15.90;;;5.60;99.90;;;;;;5116714;27;20498;-51
2021/04/21 04:41:32;;;;;;;23.25;15.55;;;5.80;99.90;;;;;;5100745;28;20666;-50
2021/04/21 04:43:59;;;;;;;20.90;16.40;;;5.90;99.90;;;;;;5107464;28;20190;-51
2021/04/21 04:46:31;;;;;;;22.40;16.73;;;5.70;99.90;;;;;;5099974;28;20447;-54
2021/04/21 04:49:10;;;;;;;22.08;15.68;;;5.60;99.90;;;;;;5107506;28;20715;-53
2021/04/21 04:51:44;;;;;;;19.15;15.70;;;5.90;99.90;;;;;;5105968;28;20216;-53
2021/04/21 04:54:11;;;;;;;20.17;14.98;;;5.80;99.90;;;;;;5104479;28;20558;-53
2021/04/21 04:56:37;;;;;;;18.60;15.70;;;5.80;99.90;;;;;;5103867;28;20185;-53
2021/04/21 04:59:05;;;;;;;24.70;17.65;;;5.80;99.90;;;;;;5107672;28;20526;-55
2021/04/21 05:01:46;;;;;;;21.95;16.67;;;6.00;99.90;;;;;;5101133;28;20204;-50
2021/04/21 05:04:14;;;;;;;22.67;16.52;;;6.00;99.90;;;;;;5095240;28;20182;-51
2021/04/21 05:06:49;;;;;;;20.80;15.77;;;6.20;99.90;;;;;;5106308;28;20192;-54
2021/04/21 05:09:18;;;;;;;25.10;17.40;;;6.00;99.90;;;;;;5099643;28;20270;-51
2021/04/21 05:11:46;;;;;;;22.35;15.93;;;6.10;99.90;;;;;;5102818;28;20387;-51
2021/04/21 05:14:13;;;;;;;26.75;17.10;;;6.00;99.90;;;;;;5099486;28;20284;-50
2021/04/21 05:16:58;;;;;;;21.13;17.70;;;6.00;99.90;;;;;;5099512;28;20178;-50
2021/04/21 05:19:42;;;;;;;22.10;16.23;;;6.30;99.90;;;;;;5101849;28;20609;-50
2021/04/21 05:22:26;;;;;;;19.60;15.80;;;6.30;99.90;;;;;;5102175;28;20207;-53
2021/04/21 05:25:13;;;;;;;24.58;17.90;;;6.40;99.90;;;;;;5100740;28;20546;-51
2021/04/21 05:28:01;;;;;;;21.50;16.90;;;6.20;99.90;;;;;;5110738;27;20306;-53
2021/04/21 05:31:00;;;;;;;23.27;16.85;;;6.50;99.90;;;;;;5104085;27;20702;-52
2021/04/21 05:34:03;;;;;;;23.73;16.35;;;6.50;99.90;;;;;;5113187;27;20248;-52
2021/04/21 05:36:47;;;;;;;24.05;17.48;;;6.70;99.90;;;;;;5108007;27;20707;-53
2021/04/21 05:39:25;;;;;;;19.83;16.83;;;7.00;99.90;;;;;;5106754;28;20214;-52
2021/04/21 05:42:48;;;;;;;23.23;17.15;;;6.80;99.90;;;;;;5103832;28;20211;-52
2021/04/21 05:45:52;;;;;;;22.52;18.42;;;7.00;99.90;;;;;;5041947;28;20186;-52
2021/04/21 05:48:51;;;;;;;24.42;16.27;;;7.20;99.90;;;;;;5029661;28;20309;-53
2021/04/21 05:51:43;;;;;;;21.95;17.05;;;7.20;99.90;;;;;;5108652;28;20243;-52
2021/04/21 05:54:41;;;;;;;22.98;17.80;;;7.30;99.90;;;;;;5108682;28;20240;-53
2021/04/21 05:57:44;;;;;;;23.00;17.33;;;7.40;99.90;;;;;;5103951;28;20285;-52
2021/04/21 06:00:21;;;;;;;22.38;16.45;;;7.70;99.90;;;;;;5102397;28;20192;-53
2021/04/21 06:02:48;;;;;;;22.95;18.13;;;7.90;99.90;;;;;;5118765;27;20751;-53
2021/04/21 06:05:15;;;;;;;27.80;17.85;;;8.20;99.90;;;;;;5103547;28;20664;-53
2021/04/21 06:07:42;;;;;;;22.50;16.77;;;8.40;99.90;;;;;;5108738;28;20192;-52
2021/04/21 06:10:19;;;;;;;20.08;17.25;;;8.60;99.90;;;;;;5106015;28;20298;-52
2021/04/21 06:12:46;;;;;;;21.70;18.70;;;9.20;99.90;;;;;;5106569;28;20287;-54
2021/04/21 06:15:14;;;;;;;18.60;15.98;;;9.30;99.90;;;;;;5109505;28;20658;-53
2021/04/21 06:17:43;;;;;;;21.08;16.63;;;9.20;99.90;;;;;;5097492;28;20188;-53
2021/04/21 06:20:14;;;;;;;22.70;17.80;;;9.40;99.90;;;;;;5107517;28;20187;-52
2021/04/21 06:22:39;;;;;;;21.48;16.90;;;9.50;99.90;;;;;;5106989;28;20588;-53
2021/04/21 06:25:13;;;;;;;18.77;16.20;;;9.80;99.90;;;;;;5108182;28;20187;-53
2021/04/21 06:27:39;;;;;;;19.77;16.08;;;10.40;99.90;;;;;;5106614;28;20199;-55
2021/04/21 06:30:06;;;;;;;17.83;15.52;;;10.80;99.90;;;;;;5090354;28;20621;-55
2021/04/21 06:32:32;;;;;;;29.77;18.15;;;11.10;98.60;;;;;;5113008;28;20222;-56
2021/04/21 06:35:08;;;;;;;20.40;18.20;;;11.20;98.00;;;;;;5103112;28;20841;-55
2021/04/21 06:37:35;;;;;;;23.85;18.95;;;11.10;98.60;;;;;;5107213;28;20169;-54
2021/04/21 06:40:05;;;;;;;24.20;20.08;;;11.10;98.80;;;;;;5120163;27;20578;-55
2021/04/21 06:42:30;;;;;;;23.90;17.38;;;11.90;98.40;;;;;;5117445;27;20205;-56
2021/04/21 06:44:56;;;;;;;22.53;17.67;;;12.10;96.50;;;;;;5106747;28;20923;-56
2021/04/21 06:47:27;;;;;;;24.20;18.35;;;11.70;96.00;;;;;;5106733;28;20221;-55
2021/04/21 06:50:00;;;;;;;26.55;18.58;;;12.20;96.30;;;;;;5108395;28;20189;-55
2021/04/21 06:52:37;;;;;;;24.55;18.20;;;12.70;95.40;;;;;;5103602;28;20686;-57
2021/04/21 06:55:07;;;;;;;21.17;17.77;;;13.10;94.60;;;;;;5107186;28;20179;-59
2021/04/21 06:57:33;;;;;;;21.45;18.30;;;14.00;93.50;;;;;;5107673;28;20328;-54
2021/04/21 07:00:10;;;;;;;25.23;17.98;;;14.40;92.00;;;;;;5108269;28;20720;-54
2021/04/21 07:02:41;;;;;;;26.55;21.75;;;15.20;91.10;;;;;;5098881;28;20680;-60
2021/04/21 07:05:30;;;;;;;26.38;20.17;;;16.70;84.30;;;;;;5103333;28;20190;-59
2021/04/21 07:08:20;;;;;;;29.58;19.23;;;18.20;78.80;;;;;;5101968;28;20175;-56
2021/04/21 07:10:51;;;;;;;18.23;16.30;;;20.60;72.00;;;;;;5096986;28;20246;-55
2021/04/21 07:13:23;;;;;;;18.63;16.63;;;22.70;62.30;;;;;;5107923;28;20447;-57
2021/04/21 07:15:51;;;;;;;19.00;17.10;;;24.30;57.90;;;;;;5100935;28;20437;-58
2021/04/21 07:18:19;;;;;;;19.90;18.00;;;25.80;54.20;;;;;;5103673;28;20426;-57
2021/04/21 07:20:46;;;;;;;21.40;18.60;;;25.80;49.50;;;;;;5108294;28;20474;-58
2021/04/21 07:23:12;;;;;;;21.70;19.50;;;25.60;49.90;;;;;;5106687;28;20548;-58
2021/04/21 07:25:39;;;;;;;21.10;19.00;;;25.40;48.70;;;;;;5107403;28;20438;-57
2021/04/21 07:28:06;;;;;;;20.13;18.20;;;24.40;50.60;;;;;;5108426;28;20442;-57
2021/04/21 07:30:33;;;;;;;24.40;18.80;;;23.90;51.00;;;;;;5073633;28;570892;-54
2021/04/21 07:32:59;;;;;;;20.67;18.50;;;23.80;51.30;;;;;;5095772;28;20207;-55
2021/04/21 07:35:27;;;;;;;20.70;18.70;;;24.40;51.40;;;;;;5107949;28;20517;-55
2021/04/21 07:37:56;;;;;;;20.33;18.10;;;25.60;49.10;;;;;;5108561;28;20804;-55
2021/04/21 07:40:32;;;;;;;20.53;18.50;;;25.90;48.10;;;;;;5104923;28;20484;-55
2021/04/21 07:43:16;;;;;;;24.83;22.47;;;26.40;47.00;;;;;;5100881;28;20469;-60
2021/04/21 07:45:56;;;;;;;21.27;19.17;;;26.60;46.60;;;;;;5108311;28;20480;-59
2021/04/21 07:48:34;;;;;;;20.60;18.50;;;25.90;46.70;;;;;;5108017;28;20437;-57
2021/04/21 07:51:21;;;;;;;21.60;18.53;;;25.70;47.40;;;;;;5101312;28;20457;-53
2021/04/21 07:53:46;;;;;;;21.60;19.60;;;26.30;47.10;;;;;;5103235;28;20433;-53
2021/04/21 07:56:12;;;;;;;20.10;18.20;;;26.70;45.60;;;;;;5107498;28;21014;-53
2021/04/21 07:58:37;;;;;;;24.60;20.93;;;26.90;45.50;;;;;;5103910;28;20283;-54
2021/04/21 08:01:03;;;;;;;21.30;19.20;;;26.70;45.30;;;;;;5103316;28;20422;-58
2021/04/21 08:03:29;;;;;;;21.37;19.30;;;27.30;45.10;;;;;;5098714;28;20656;-54
2021/04/21 08:05:54;;;;;;;21.00;19.10;;;27.10;44.40;;;;;;5108624;28;20183;-56
2021/04/21 08:08:31;;;;;;;21.47;19.13;;;27.10;44.30;;;;;;5107870;28;20175;-55
2021/04/21 08:10:57;;;;;;;21.00;18.90;;;26.00;45.30;;;;;;5105544;28;20670;-55
2021/04/21 08:13:40;;;;;;;20.23;18.23;;;26.90;45.60;;;;;;5106244;28;20450;-55
2021/04/21 08:16:22;;;;;;;21.83;17.97;;;28.00;43.60;;;;;;5102780;28;20435;-57
2021/04/21 08:18:48;;;;;;;19.07;17.27;;;28.30;43.00;;;;;;5095208;28;20478;-55
2021/04/21 08:21:52;;;;;;;18.80;17.00;;;28.70;42.60;;;;;;5106028;28;20460;-55
2021/04/21 08:24:19;;;;;;;19.57;17.87;;;28.30;42.50;;;;;;5102698;28;20195;-54
2021/04/21 08:26:49;;;;;;;18.70;17.00;;;29.10;41.50;;;;;;5100082;28;20467;-55
2021/04/21 08:29:16;;;;;;;20.33;18.27;;;29.00;41.70;;;;;;5106837;28;20447;-56
2021/04/21 08:31:46;;;;;;;18.93;17.20;;;27.70;42.10;;;;;;5092769;28;20478;-57
2021/04/21 08:34:12;;;;;;;18.90;17.20;;;28.90;41.80;;;;;;5102191;28;20433;-58
2021/04/21 08:36:39;;;;;;;19.53;17.83;;;29.30;39.90;;;;;;5109606;28;20799;-58
2021/04/21 08:39:05;;;;;;;18.20;16.60;;;29.10;40.60;;;;;;5106582;28;20422;-55
2021/04/21 08:41:36;;;;;;;17.73;16.10;;;29.70;39.70;;;;;;5103794;28;21000;-58
2021/04/21 08:44:02;;;;;;;18.93;17.10;;;28.70;40.50;;;;;;5095566;28;20477;-56
2021/04/21 08:46:32;;;;;;;18.73;16.93;;;29.50;40.00;;;;;;5107496;28;20809;-53
2021/04/21 08:48:58;;;;;;;19.50;17.50;;;30.00;38.50;;;;;;5102122;28;20501;-57
2021/04/21 08:51:25;;;;;;;16.73;15.30;;;30.20;38.30;;;;;;5102758;28;20565;-55
2021/04/21 08:54:06;;;;;;;19.30;17.30;;;30.00;37.30;;;;;;5118462;27;20459;-55
2021/04/21 08:56:35;;;;;;;19.07;17.23;;;29.70;38.40;;;;;;5105949;28;20429;-55
2021/04/21 08:59:03;;;;;;;18.40;16.60;;;29.10;38.80;;;;;;5105757;28;20460;-55
2021/04/21 09:01:29;;;;;;;17.70;16.00;;;28.50;40.20;;;;;;5105403;28;20975;-54
2021/04/21 09:03:56;;;;;;;17.00;15.40;;;29.50;38.90;;;;;;5096083;28;20700;-53
2021/04/21 09:06:21;;;;;;;19.57;17.70;;;30.20;38.30;;;;;;5096241;28;20463;-53
2021/04/21 09:08:50;;;;;;;18.37;16.67;;;29.10;38.80;;;;;;5104944;28;20588;-54
2021/04/21 09:11:16;;;;;;;16.23;14.77;;;30.00;38.30;;;;;;5103231;28;20216;-56
2021/04/21 09:13:42;;;;;;;18.33;16.40;;;30.40;37.20;;;;;;5092354;28;20443;-59
2021/04/21 09:16:08;;;;;;;18.50;16.80;;;29.70;36.90;;;;;;5093744;28;20442;-56
2021/04/21 09:18:35;;;;;;;18.93;17.03;;;29.70;38.10;;;;;;5101159;28;20187;-53
2021/04/21 09:21:03;;;;;;;18.90;17.10;;;29.90;37.30;;;;;;5094260;28;20188;-54
2021/04/21 09:23:37;;;;;;;17.33;15.80;;;28.90;38.80;;;;;;5101195;28;20760;-53
2021/04/21 09:26:16;;;;;;;17.67;15.87;;;28.50;38.60;;;;;;5102689;28;20448;-53
2021/04/21 09:28:44;;;;;;;16.37;14.87;;;27.50;39.50;;;;;;5096943;28;20429;-54
2021/04/21 09:31:20;;;;;;;16.97;15.37;;;27.10;39.90;;;;;;5116291;28;20562;-51
2021/04/21 09:33:47;;;;;;;14.70;13.30;;;26.20;41.30;;;;;;5102088;28;20443;-54
2021/04/21 09:36:35;;;;;;;15.33;13.77;;;25.80;40.60;;;;;;5104789;28;20976;-53
2021/04/21 09:39:11;;;;;;;13.40;12.10;;;25.00;41.70;;;;;;5104814;28;20470;-53
2021/04/21 09:41:37;;;;;;;13.97;12.67;;;24.70;40.00;;;;;;5105194;28;20458;-53
2021/04/21 09:44:30;;;;;;;13.50;12.20;;;24.90;40.50;;;;;;5104852;28;20962;-54
2021/04/21 09:46:57;;;;;;;12.30;11.10;;;24.60;39.60;;;;;;5105589;28;20771;-55
2021/04/21 09:49:32;;;;;;;12.20;11.10;;;23.90;40.80;;;;;;5105526;28;20434;-53
2021/04/21 09:52:01;;;;;;;14.80;13.30;;;24.60;40.60;;;;;;5104244;28;20483;-53
2021/04/21 09:54:36;;;;;;;13.13;11.83;;;24.20;41.00;;;;;;5104360;28;21009;-54
2021/04/21 09:57:27;;;;;;;12.40;11.20;;;24.70;41.70;;;;;;5105649;28;20588;-53
2021/04/21 10:00:13;;;;;;;13.13;11.93;;;25.50;39.70;;;;;;5100531;28;20450;-56
2021/04/21 10:02:40;;;;;;;13.67;12.47;;;25.00;39.30;;;;;;5102255;28;20204;-56
2021/04/21 10:05:23;;;;;;;14.27;12.67;;;24.40;40.70;;;;;;5105310;28;20458;-55
2021/04/21 10:08:16;;;;;;;13.43;12.13;;;23.90;42.00;;;;;;5105364;28;20436;-55
2021/04/21 10:10:45;;;;;;;12.05;10.85;;;23.20;42.00;;;;;;5106952;28;20465;-56
2021/04/21 10:13:16;;;;;;;13.23;11.83;;;23.10;41.20;;;;;;5105306;28;20199;-55
2021/04/21 10:15:43;;;;;;;12.00;10.70;;;22.70;42.00;;;;;;5110044;28;20516;-55
2021/04/21 10:18:12;;;;;;;12.30;10.93;;;22.60;42.70;;;;;;5105237;28;20522;-56
2021/04/21 10:20:38;;;;;;;11.95;10.75;;;22.40;42.10;;;;;;5104434;28;20528;-54
2021/04/21 10:23:06;;;;;;;13.13;11.93;;;21.90;42.10;;;;;;5097530;28;20204;-54
2021/04/21 10:25:33;;;;;;;12.00;10.90;;;21.20;43.30;;;;;;5097664;28;20521;-54
2021/04/21 10:27:59;;;;;;;13.30;11.60;;;21.60;43.10;;;;;;5096616;28;20310;-54
2021/04/21 10:30:25;;;;;;;18.13;16.20;;;21.60;43.40;;;;;;5107613;28;20650;-54
2021/04/21 10:32:52;;;;;;;11.93;10.73;;;21.60;44.00;;;;;;5097779;28;20450;-54
2021/04/21 10:35:17;;;;;;;11.82;9.98;;;22.00;42.80;;;;;;5099196;27;20223;-55
2021/04/21 10:37:43;;;;;;;11.20;9.93;;;22.10;42.30;;;;;;5108542;28;20184;-54
2021/04/21 10:40:11;;;;;;;11.10;10.00;;;22.20;43.50;;;;;;5109201;28;20175;-55
2021/04/21 10:42:54;;;;;;;12.30;11.20;;;23.10;43.30;;;;;;5109659;28;20478;-55
2021/04/21 10:45:24;;;;;;;12.50;11.40;;;23.00;41.90;;;;;;5108673;28;20441;-54
2021/04/21 10:47:52;;;;;;;13.87;12.07;;;22.20;42.80;;;;;;5109770;28;20282;-55
2021/04/21 10:50:38;;;;;;;12.43;10.83;;;22.60;43.50;;;;;;5097189;28;20468;-54
2021/04/21 10:53:04;;;;;;;10.97;9.97;;;22.70;41.70;;;;;;5095179;28;20456;-55
2021/04/21 10:55:35;;;;;;;10.87;9.87;;;22.80;41.80;;;;;;5094239;28;20465;-54
2021/04/21 10:58:03;;;;;;;12.37;11.23;;;23.30;42.10;;;;;;5099448;28;20183;-53
2021/04/21 11:00:35;;;;;;;11.43;10.33;;;23.30;41.00;;;;;;5105605;28;20453;-54
2021/04/21 11:03:12;;;;;;;13.63;11.47;;;23.40;40.70;;;;;;5107358;28;20461;-55
2021/04/21 11:05:46;;;;;;;9.77;8.83;;;23.10;40.30;;;;;;5103859;28;20432;-53
2021/04/21 11:08:21;;;;;;;7.55;6.88;;;23.10;45.00;;;;;;5099640;28;20459;-50
2021/04/21 11:11:02;;;;;;;11.67;10.40;;;23.30;45.60;;;;;;5107662;28;20666;-54
2021/04/21 11:13:34;;;;;;;10.07;9.18;;;23.00;41.60;;;;;;5112423;27;20435;-55
2021/04/21 11:16:20;;;;;;;11.37;10.27;;;23.00;41.30;;;;;;5107836;28;20222;-55
2021/04/21 11:18:46;;;;;;;10.03;9.13;;;23.10;40.90;;;;;;5095249;28;20426;-54
2021/04/21 11:21:14;;;;;;;10.47;9.27;;;22.90;41.60;;;;;;5107226;28;20525;-54
2021/04/21 11:23:58;;;;;;;10.02;9.13;;;22.50;42.60;;;;;;5105988;28;20218;-55
2021/04/21 11:26:27;;;;;;;10.90;9.32;;;22.50;41.40;;;;;;5101286;28;20191;-57
2021/04/21 11:29:04;;;;;;;11.10;9.87;;;22.60;42.10;;;;;;5102960;28;20191;-53
2021/04/21 11:31:48;;;;;;;10.23;9.27;;;22.80;41.00;;;;;;5105149;28;20537;-54
2021/04/21 11:34:14;;;;;;;10.20;9.20;;;22.60;40.10;;;;;;5108722;27;20777;-52
2021/04/21 11:36:49;;;;;;;9.90;8.93;;;22.50;39.70;;;;;;5101401;28;20436;-52
2021/04/21 11:39:15;;;;;;;9.07;8.23;;;22.30;40.30;;;;;;5125076;27;20809;-51
2021/04/21 11:41:50;;;;;;;9.38;8.48;;;21.90;39.90;;;;;;5106530;28;20268;-55
2021/04/21 11:44:47;;;;;;;10.32;8.55;;;21.60;39.20;;;;;;5107790;28;20183;-53
2021/04/21 11:47:28;;;;;;;7.82;7.20;;;21.00;39.00;;;;;;5105812;28;20187;-55
2021/04/21 11:50:00;;;;;;;8.73;7.72;;;21.30;39.50;;;;;;5104211;28;20192;-55
2021/04/21 11:52:53;;;;;;;9.75;7.53;;;21.80;39.40;;;;;;5102431;28;20196;-55
2021/04/21 11:55:21;;;;;;;8.85;8.05;;;21.70;39.70;;;;;;5107821;28;20484;-53
2021/04/21 11:57:58;;;;;;;9.70;8.80;;;21.70;40.50;;;;;;5101176;28;20288;-53
2021/04/21 12:00:30;;;;;;;10.82;9.82;;;22.00;39.60;;;;;;5102461;28;20244;-53
2021/04/21 12:02:56;;;;;;;9.38;8.57;;;21.90;39.90;;;;;;5101354;28;20289;-51
2021/04/21 12:05:24;;;;;;;11.15;10.15;;;21.80;39.80;;;;;;5102794;28;20215;-52
2021/04/21 12:07:50;;;;;;;9.40;8.50;;;21.90;40.30;;;;;;5101473;28;20194;-51
2021/04/21 12:10:18;;;;;;;8.60;7.80;;;21.90;39.20;;;;;;5105793;28;20207;-51
2021/04/21 12:12:44;;;;;;;9.07;8.18;;;21.70;38.60;;;;;;5099750;28;20204;-53
2021/04/21 12:15:10;;;;;;;7.80;6.97;;;21.70;39.10;;;;;;5102495;28;20272;-53
2021/04/21 12:17:54;;;;;;;9.82;8.82;;;21.70;39.20;;;;;;5103387;28;20437;-54
2021/04/21 12:20:27;;;;;;;9.55;8.55;;;21.70;40.60;;;;;;5102477;28;20209;-52
2021/04/21 12:22:53;;;;;;;9.23;8.40;;;21.70;40.10;;;;;;5105292;28;20209;-52
2021/04/21 12:25:24;;;;;;;9.20;8.40;;;21.70;40.00;;;;;;5107771;28;20645;-51
2021/04/21 12:27:52;;;;;;;9.75;8.85;;;21.60;41.30;;;;;;5104629;28;20436;-51
2021/04/21 12:30:19;;;;;;;9.40;8.50;;;21.60;41.00;;;;;;5106834;28;20574;-53
2021/04/21 12:32:46;;;;;;;9.95;8.95;;;21.70;41.40;;;;;;5103877;28;20203;-55
2021/04/21 12:35:13;;;;;;;11.85;8.75;;;21.70;42.00;;;;;;5104587;28;20202;-54
2021/04/21 12:37:39;;;;;;;11.00;9.85;;;21.80;40.90;;;;;;5107785;28;20215;-55
2021/04/21 12:40:21;;;;;;;10.75;9.57;;;21.90;40.90;;;;;;5107245;28;20193;-53
2021/04/21 12:42:49;;;;;;;11.25;9.40;;;22.00;40.80;;;;;;5104381;28;20279;-53
2021/04/21 12:45:28;;;;;;;10.35;9.40;;;22.10;40.60;;;;;;5107443;28;20189;-58
2021/04/21 12:47:54;;;;;;;9.23;8.32;;;22.00;40.20;;;;;;5102084;28;20669;-53
2021/04/21 12:50:31;;;;;;;9.80;8.80;;;22.00;39.20;;;;;;5106657;28;20199;-53
2021/04/21 12:53:11;;;;;;;8.32;6.90;;;21.90;39.00;;;;;;5102232;28;20203;-53
2021/04/21 12:55:36;;;;;;;7.70;7.00;;;21.90;38.80;;;;;;5101868;28;20240;-55
2021/04/21 12:58:02;;;;;;;11.13;9.20;;;21.90;38.30;;;;;;5103767;28;20183;-53
2021/04/21 13:00:29;;;;;;;9.70;8.87;;;21.40;37.90;;;;;;5102727;28;20298;-53
2021/04/21 13:02:54;;;;;;;8.32;7.18;;;21.00;38.50;;;;;;5098166;28;20203;-56
2021/04/21 13:05:44;;;;;;;9.10;8.20;;;21.10;38.70;;;;;;5107381;28;20296;-56
2021/04/21 13:08:21;;;;;;;10.32;8.60;;;21.20;39.40;;;;;;5104182;28;20194;-53